Sei sulla pagina 1di 3

VAL SERIANA MARATHON

NEMBRO (BG) 18/07/2021


UNICO (37 KM)

Pos Nr. Nominativo Atleta G Nato il Cat Pos Nome Squadra Tempo Gap Km/h
1 2 ARIAS CUERVO Diego alfonso M 1988 OPEN 1 GIANT-LIV POLIMEDICAL 02:01:36.55 - 18,255
2 5 CATTANEO Johnny M 1981 OPEN 2 WILIER 7C FORCE 02:05:57.82 +4:21 17,624
3 1 MENSI Daniele M 1988 OPEN 3 SOUDAL LEECOUGAN MTB RACING TEAM 02:06:59.08 +5:22 17,482
4 9 DAL GRANDE Stefano M 1990 OPEN 4 OLYMPIA FACTORY TEAM 02:07:41.34 +6:04 17,386
5 10 BACCANELLI Roberto M 1993 OPEN 5 OLYMPIA FACTORY TEAM 02:11:05.09 +9:28 16,936
6 3 MEDVEDEV Aleksei M 1983 OPEN 6 SOUDAL LEECOUGAN MTB RACING TEAM 02:11:22.09 +9:45 16,899
7 21 FOCCOLI Davide M 2001 OPEN 7 ASD MONTICELLI BIKE 02:12:55.21 +11:18 16,702
8 27 BERETTA Mattia M 2002 OPEN 8 KTM - PROTEK - ELETTROSYSTEM 02:16:03.10 +14:26 16,317
9 13 MANDELLI Federico M 1997 OPEN 9 FRM FACTORY RACING TEAM ASD 02:17:35.11 +15:58 16,135
10 6 DEHO Marzio M 1968 OPEN 10 OLYMPIA FACTORY TEAM 02:17:35.61 +15:59 16,134
11 14 FIGUEROA Garcia ernesto M 1990 OPEN 11 FRM FACTORY RACING TEAM ASD 02:18:05.11 +16:28 16,077
12 20 MAZZOLA Giannantonio M 2001 OPEN 12 NEW BIKE 2008 RACING TEAM 02:18:56.59 +17:20 15,978
13 96 MENSI Francesco M 1982 M2 1 NIARDO FOR BIKE 02:19:20.85 +17:44 15,931
14 29 TONOLI Emanuele M 2000 OPEN 13 NEW BIKE 2008 RACING TEAM 02:19:40.85 +18:04 15,893
15 94 ARICI Simone M 1980 M3 1 FM BIKE FACTORY TEAM 02:21:54.12 +20:17 15,645
16 11 ZANASCA Luca M 1983 OPEN 14 TEAM COMO BIKE 02:21:59.86 +20:23 15,634
17 222 REDAELLI Giorgio M 1982 M2 2 ASD PAVAN FREE BIKE 02:22:41.37 +21:04 15,558
18 23 MIAZZA Gabriele M 2001 OPEN 15 ASD RACING TEAM RIVE ROSSE 02:23:09.87 +21:33 15,507
19 78 COLOMBO Simone M 1977 M3 2 KTM - PROTEK - ELETTROSYSTEM 02:23:10.37 +21:33 15,506
20 213 MORETTI Stefano M 1991 M1 1 ASD PAVAN FREE BIKE 02:23:34.37 +21:57 15,463
21 71 BOFFELLI Cristian M 1995 ELMT 1 ASD PAVAN FREE BIKE 02:24:48.61 +23:12 15,330
22 39 TOMBINI Giorgio M 2003 JU 1 INDIVIDUALE 02:26:29.86 +24:53 15,154
23 80 CURNIS Alessio M 1980 M3 3 LISSONE MTB ASD 02:27:06.61 +25:30 15,091
24 30 FARINA Mattia M 2000 OPEN 16 LISSONE MTB ASD 02:27:09.86 +25:33 15,085
25 81 FINAZZI Mattia M 1991 M1 2 LISSONE MTB ASD 02:27:11.11 +25:34 15,083
26 261 GALEOTALANZA Antonio M 1983 M2 3 BONFANTI RACING TEAM 02:27:34.11 +25:57 15,044
27 262 BORGOGNONI Patrik M 1986 M2 4 ASD TECSO FIAMME ALTE 02:28:14.87 +26:38 14,975
28 92 ROSSINI Samuele M 1987 M1 3 TEAM COMO BIKE 02:28:16.63 +26:40 14,972
29 100 BERGAMELLI Samuele M 1965 M6 1 GS MARINELLI - TEAM CICLI VEDOVATI 02:28:18.88 +26:42 14,968
30 258 PESSINA Fabio M 1992 ELMT 2 TEAM VISCARDI ASD 02:29:23.87 +27:47 14,860
31 220 PIERMARTERI Alessandro M 1973 M4 1 ASD PAVAN FREE BIKE 02:30:06.87 +28:30 14,789
32 110 GIORGI Luca M 1989 M1 4 NIARDO FOR BIKE 02:32:11.13 +30:34 14,587
33 88 OLOVRAP Silvio M 1969 M5 1 ASD PAVAN FREE BIKE 02:34:10.13 +32:33 14,400
34 83 MADASCHI Marco M 1980 M3 4 LISSONE MTB ASD 02:35:10.89 +33:34 14,306
35 111 ZUCCOLINI Carlo M 1968 M5 2 LUGAGNANO OFF ROAD 02:35:12.40 +33:35 14,304
36 109 PAROLETTI Angiolino M 1964 M6 2 NIARDO FOR BIKE 02:36:42.26 +35:05 14,167
37 34 PEZZOTTA CIUCA Madalin george M 2003 JU 2 TEAM BIKE ROCKS 02:37:06.14 +35:29 14,131
38 95 BARTESAGHI Giovanni M 1964 M6 3 ASD PAVAN FREE BIKE 02:37:41.89 +36:05 14,078
39 244 BONADEI Stefano M 1978 M3 5 ASD PAVAN FREE BIKE 02:37:55.64 +36:19 14,057
40 248 CANTONI Roger M 1972 M4 2 GUTI BIKE TEAM ASD 02:38:01.64 +36:25 14,048
41 87 MUCCI Matteo M 1973 M4 3 TEAM COMO BIKE 02:38:38.75 +37:02 13,993
43 223 ZANOLETTI Claudio M 1960 M7 1 ASD PAVAN FREE BIKE 02:38:57.15 +37:20 13,966
44 36 BIANCHI Stefano M 2004 JU 3 TEAM MANUEL BIKE FRM 02:39:05.90 +37:29 13,954
45 240 VENOSTA Claudio M 1995 ELMT 3 ALTA VALTELLINA BIKE 02:39:07.15 +37:30 13,952
46 151 AGOSTI Paolo M 1998 ELMT 4 ASD MTB FRANCIACORTA CAPRIOLO 02:39:12.75 +37:36 13,944
47 271 AMIGONI Clivo M 1973 M4 4 ASD TEAM MOROTTI 02:39:35.15 +37:58 13,911
48 180 TAFFURI Stefano M 1976 M4 5 ASD CLAMAS TEAM TERGAS EUROGRAPH 02:39:56.27 +38:19 13,880
49 264 SANGIOVANNI Mirko angelo M 1975 M4 6 ASD SG IMBERIDO 02:40:12.16 +38:35 13,857
50 214 MEZZADRA Giorgio M 1983 M2 5 GRUPPO NULLI - GUBER BANCA 02:41:09.41 +39:32 13,775
51 93 VILLA Marco M 1980 M3 6 LISSONE MTB ASD 02:41:22.90 +39:46 13,756
52 104 LOCATELLI Andrea M 1973 M4 7 GS MARINELLI - TEAM CICLI VEDOVATI 02:41:42.67 +40:06 13,728
53 162 FERRARIO Giovanni M 1973 M4 8 HR TEAM 02:41:49.65 +40:13 13,718
54 242 BOESSO Luca M 1982 M2 6 RACING ROSOLA BIKE 02:41:58.15 +40:21 13,706
55 230 NALIN Fabrizio M 1972 M4 9 US CASSINA DE' BRACCHI 02:42:19.28 +40:42 13,677
56 249 TOSELLI Davide M 1984 M2 7 B3L TEAM 02:42:24.91 +40:48 13,669
58 174 PASINELLI Gian michele M 1969 M5 3 ASD UGGIATESE BICI BIKE 93 02:42:53.42 +41:16 13,629
59 82 GIAMPA' Salvatore M 1974 M4 10 HR TEAM 02:43:25.66 +41:49 13,584
60 26 CONTI Filippo M 2002 OPEN 17 GRUPPO NULLI - GUBER BANCA 02:43:27.92 +41:51 13,581
61 272 MARCHESI Matteo M 1990 M1 5 TEAM BIKE TRESCORE BALNEARIO 02:43:34.17 +41:57 13,572
62 270 PIANTONI Maurizio M 1975 M4 11 ASD TEAM MOROTTI 02:43:43.15 +42:06 13,560

Classifiche Elaborate da SMS Sport


Pag. 1/3
VAL SERIANA MARATHON
NEMBRO (BG) 18/07/2021
UNICO (37 KM)

Pos Nr. Nominativo Atleta G Nato il Cat Pos Nome Squadra Tempo Gap Km/h
63 98 SOMMARIVA Luca M 1986 M2 8 ASD CYCLING TEAM OLTREPO INTERNATIONAL 02:43:55.90 +42:19 13,542
64 16 VIARETTI Alessandro M 1998 OPEN 18 ASD RACING TEAM RIVE ROSSE 02:45:20.15 +43:43 13,427
65 12 MOLON Samuele M 1996 OPEN 19 GC TEAM BIKE CASTELGOMBERTO 02:46:15.91 +44:39 13,352
66 172 NAVA Mario M 1964 M6 4 ASD PAVAN FREE BIKE 02:46:45.91 +45:09 13,312
67 176 QUARTA Albino M 1982 M2 9 ASD UGGIATESE BICI BIKE 93 02:46:50.67 +45:14 13,306
68 75 CANAPE Daniele M 1973 M4 12 BICI CLUB 2000 02:46:55.17 +45:18 13,300
69 153 BELLONI Fausto M 1971 M5 4 VELO CLUB GARDA 02:47:45.16 +46:08 13,234
70 37 PIANTONI Andrea M 2003 JU 4 TEAM MANUEL BIKE FRM 02:48:27.66 +46:51 13,178
71 8 BRAMBILLA Davide M 1998 OPEN 20 MTB INCREA BRUGHERIO 02:49:22.30 +47:45 13,107
72 275 MADASCHI Luca M 1989 M1 6 ASD TECSO FIAMME ALTE 02:49:37.17 +48:00 13,088
73 171 MUSSOLIN Andrea M 1984 M2 10 ASD UGGIATESE BICI BIKE 93 02:49:39.68 +48:03 13,085
74 246 TOSELLI Cristian M 1975 M4 13 MDL RACING CREW ASD 02:49:43.67 +48:07 13,080
75 74 BONDIONI Tiziano M 1981 M3 7 NIARDO FOR BIKE 02:50:09.17 +48:32 13,047
76 260 CABRINI Andrea M 1999 ELMT 5 B3L TEAM 02:50:52.92 +49:16 12,991
77 157 COLOMBO Emanuele M 1980 M3 8 TEAM BICIAIO 02:51:14.77 +49:38 12,964
78 243 MENGHETTI Fabio M 1969 M5 5 VELO CLUB GARDA 02:51:50.17 +50:13 12,919
79 73 ARICI Leonardo M 1959 M7 2 RACING ROSOLA BIKE 02:52:11.17 +50:34 12,893
80 259 GIACOMINI Andrea rodolfo M 1968 M5 6 RACING ROSOLA BIKE 02:52:11.94 +50:35 12,892
81 245 ROZZINI Sebastiano M 1987 M1 7 MDL RACING CREW ASD 02:52:26.29 +50:49 12,874
82 225 ZIGLIOLI Daniele M 1971 M5 7 ASD GS CIGNONE 02:53:24.67 +51:48 12,802
83 72 ANTONIOLI Mauro M 1964 M6 5 CICLOBIKES NONSOLOFANGO 02:54:32.93 +52:56 12,718
84 24 OTTINO Federico piero M 2002 OPEN 21 ASD RACING TEAM RIVE ROSSE 02:55:29.68 +53:53 12,650
85 7 GIULIANI Giovanni francesco M 1984 OPEN 22 ASD ANGRY WHEELS 02:56:15.43 +54:38 12,595
86 38 CASTELNOVO Dimitri M 2004 JU 5 LISSONE MTB ASD 02:56:17.19 +54:40 12,593
87 28 BERTOLETTI Simone M 2000 OPEN 23 ASD CICLI BETTONI 02:56:19.18 +54:42 12,591
88 107 GRASSI Matteo M 1989 M1 8 GS MARINELLI - TEAM CICLI VEDOVATI 02:56:20.93 +54:44 12,589
89 265 GUIZZETTI Alberto M 1969 M5 8 ASD CICLI BETTONI 02:56:27.18 +54:50 12,581
90 102 SPECIALE Leonardo M 1978 M3 9 GS MARINELLI - TEAM CICLI VEDOVATI 02:58:07.95 +56:31 12,463
91 90 RADAELLI Samuele angelo M 1964 M6 6 ASD TEAM XBIKE 02:58:08.79 +56:32 12,462
92 91 RONDINELLI Massimo M 1976 M4 14 TEAM COMO BIKE 02:58:49.94 +57:13 12,414
93 181 TRENTINI Daniele M 1985 M2 11 ASD MTB FRANCIACORTA CAPRIOLO 02:59:55.31 +58:18 12,339
96 269 PARIS Elvis aaron M 1976 M4 15 ASD MTB SUISIO 03:00:56.20 +59:19 12,269
97 173 OLIVETO Antonio M 1982 M2 12 HR TEAM 03:01:20.32 +59:43 12,242
98 224 BUZZETTI Federico M 1991 M1 9 ASD GAGABIKE TEAM 03:01:22.69 +59:46 12,240
99 226 ORLANDO Elis M 1978 M3 10 VALCERESIO BIKE ASD 03:01:23.20 +59:46 12,239
100 221 MANGIARUGA Domenicantonio M 1981 M3 11 GS 2X2 MTB TEAM BRENNA 03:01:24.69 +59:48 12,237
101 33 SPADACINI Andrea M 2004 JU 6 NIARDO FOR BIKE 03:02:23.69 +01:00:47 12,171
102 250 GRIGIS Marco M 1975 M4 16 LORETO LE MARMOTTE USD 03:02:27.32 +01:00:50 12,167
103 233 MARROCCO Gabriele M 1996 ELMT 6 ASD SWATT CLUB 03:03:54.71 +01:02:18 12,071
104 25 COMINCINI Gabriele M 2002 OPEN 24 GRUPPO NULLI - GUBER BANCA 03:06:31.45 +01:04:54 11,902
105 229 BENNATO Pietro davide M 1959 M7 3 GS 2X2 MTB TEAM BRENNA 03:07:36.34 +01:05:59 11,833
106 182 VIGNAZZA Mirko M 1978 M3 12 TEAM BICIAIO 03:09:08.46 +01:07:31 11,737
107 35 RASIA Riccardo M 2003 JU 7 GC TEAM BIKE CASTELGOMBERTO 03:09:15.71 +01:07:39 11,730
108 211 VALENTINI Luca M 1973 M4 17 ASD US CHIAVENNESE 03:09:19.96 +01:07:43 11,725
109 232 RAGNOLI Ivano M 1968 M5 9 ASD CICLI BACCHETTI 03:10:01.46 +01:08:24 11,683
110 257 SPREAFICO Manuel gilles M 1984 M2 13 TEAM VISCARDI ASD 03:10:51.21 +01:09:14 11,632
111 231 GUERRA Adam M 1975 M4 18 ASD CICLI BACCHETTI 03:11:26.23 +01:09:49 11,596
112 251 NIGRONI Andrea M 1978 M3 13 2R BIKE STORE 03:12:42.22 +01:11:05 11,520
113 32 PULECCHI Federico M 2004 JU 8 SCUOLA MTB SAN PAOLO D'ARGON 03:14:55.24 +01:13:18 11,389
114 177 REDAELLI Giuseppe M 1961 M7 4 SIRONE BIKE ASD 03:15:42.48 +01:14:05 11,343
115 167 LANTERI Francesco M 1981 M3 14 TEAM ZETA - RAFFAELE ZUCCALI 03:15:52.72 +01:14:16 11,334
116 227 BORETTA Daniele M 1979 M3 15 GS 2X2 MTB TEAM BRENNA 03:16:17.98 +01:14:41 11,309
117 239 FORNARI Massimiliano M 1971 M5 10 GS F.LLI RIZZOTTO COOP LOMBARDIA 03:16:19.73 +01:14:43 11,308
118 218 PLATANIA Paolo M 1968 M5 11 SENZAFRENI MTB CLUB 03:16:39.23 +01:15:02 11,289
120 84 MARCHETTI Andrea M 1976 M4 19 WET LIFE RIDOTTIALLOSSO 03:18:10.73 +01:16:34 11,202
121 169 MANZONI Toni M 1978 M3 16 TEAM ZETA - RAFFAELE ZUCCALI 03:18:40.24 +01:17:03 11,174
122 79 CRIPPA Nicolas M 1993 ELMT 7 ASD BRIANZA 03:19:27.74 +01:17:51 11,130
123 204 CAGLIANI Mirco M 1989 M1 10 AMICI DEL PEDALE PROVEZZE 03:21:49.50 +01:20:12 11,000
124 217 MOTTA Fabio M 1993 ELMT 8 GS MOUNTAIN BIKE CLUB FALCHI BLU 03:22:19.74 +01:20:43 10,972
125 210 PEZZOLI Federico M 1999 ELMT 9 LORETO LE MARMOTTE USD 03:22:41.25 +01:21:04 10,953

Classifiche Elaborate da SMS Sport


Pag. 2/3
VAL SERIANA MARATHON
NEMBRO (BG) 18/07/2021
UNICO (37 KM)

Pos Nr. Nominativo Atleta G Nato il Cat Pos Nome Squadra Tempo Gap Km/h
126 238 GALAZZI Maurizio M 1958 M7 5 RECA BIKE 03:22:41.84 +01:21:05 10,952
127 158 DELL'AVA Flavio M 1958 M7 6 ASD US CHIAVENNESE 03:23:46.24 +01:22:09 10,895
128 163 FINATTI Davide M 1987 M1 11 TEAM MTB LOMAZZO 03:28:36.50 +01:26:59 10,642
130 86 MAURI Alessio M 1975 M4 20 TEAM COMO BIKE 03:34:14.27 +01:32:37 10,362
131 247 VALENTINI Stefano M 1984 M2 14 MDL RACING CREW ASD 03:34:32.87 +01:32:56 10,347
132 219 RIOLO Domenico M 1982 M2 15 ASD LAVICA BIKE 03:37:58.03 +01:36:21 10,185
133 252 AZOR Roberto M 1972 M4 21 KRICCA BIKE ASD 03:40:16.28 +01:38:39 10,078
134 99 CAZZANIGA Roberto M 1964 M6 7 LISSONE MTB ASD 03:41:33.03 +01:39:56 10,020
135 216 BELLOMO Daniele M 1966 M6 8 TEAM BIKE ROCKS 03:43:23.29 +01:41:46 9,938
136 205 GEROMIN Andrea M 1971 M5 12 ASD CICLI BETTONI 03:46:38.80 +01:45:02 9,795
137 215 SAIBENI Giuseppe M 1966 M6 9 MTB EVALOON 03:49:06.05 +01:47:29 9,690
139 77 CARAMASCHI Carlo M 1962 M6 10 HR TEAM 03:50:28.80 +01:48:52 9,632
140 267 MOTTINI Adriano M 1963 M6 11 A.S.D. BREMBER VALLEY 03:52:24.80 +01:50:48 9,552
141 228 OUHAJ El mostafa M 1970 M5 13 CJF AFRICOLOR 03:52:44.54 +01:51:07 9,538
142 234 ZUNNUI Nicola M 1967 M5 14 LISSONE MTB ASD 03:54:22.32 +01:52:45 9,472
143 152 ARRIGO Giuliano M 1989 M1 12 ASD UGGIATESE BICI BIKE 93 03:56:04.33 +01:54:27 9,404
144 266 NICOLUSSI Arturo M 1965 M6 12 POLISPORTIVA BERNATE 03:59:58.57 +01:58:22 9,251
145 76 CAPELLI Fulvio M 1986 M2 16 HR TEAM 04:06:01.84 +02:04:25 9,023
147 273 GIACOMINI Stefano M 1971 M5 15 ASD TECSO FIAMME ALTE 04:26:49.99 +02:25:13 8,320
148 274 BARBIERI Luca M 1986 M2 17 ASD TECSO FIAMME ALTE 04:26:50.66 +02:25:14 8,319